sensor_id;sensor_type;location;lat;lon;timestamp;temperature;humidity
23803;DHT22;12082;51.786;6.018;2023-04-29T00:00:26;9.30;99.90
23803;DHT22;12082;51.786;6.018;2023-04-29T00:02:51;9.30;99.90
23803;DHT22;12082;51.786;6.018;2023-04-29T00:05:17;9.30;99.90
23803;DHT22;12082;51.786;6.018;2023-04-29T00:07:43;9.20;99.90
23803;DHT22;12082;51.786;6.018;2023-04-29T00:10:09;9.20;99.90
23803;DHT22;12082;51.786;6.018;2023-04-29T00:12:36;9.20;99.90
23803;DHT22;12082;51.786;6.018;2023-04-29T00:15:02;9.20;99.90
23803;DHT22;12082;51.786;6.018;2023-04-29T00:17:29;9.20;99.90
23803;DHT22;12082;51.786;6.018;2023-04-29T00:19:54;9.20;99.90
23803;DHT22;12082;51.786;6.018;2023-04-29T00:22:20;9.20;99.90
23803;DHT22;12082;51.786;6.018;2023-04-29T00:24:46;9.20;99.90
23803;DHT22;12082;51.786;6.018;2023-04-29T00:27:12;9.10;99.90
23803;DHT22;12082;51.786;6.018;2023-04-29T00:29:37;9.10;99.90
23803;DHT22;12082;51.786;6.018;2023-04-29T00:32:03;9.20;99.90
23803;DHT22;12082;51.786;6.018;2023-04-29T00:34:29;9.20;99.90
23803;DHT22;12082;51.786;6.018;2023-04-29T00:36:55;9.20;99.90
23803;DHT22;12082;51.786;6.018;2023-04-29T00:39:21;9.20;99.90
23803;DHT22;12082;51.786;6.018;2023-04-29T00:41:46;9.20;99.90
23803;DHT22;12082;51.786;6.018;2023-04-29T00:44:12;9.20;99.90
23803;DHT22;12082;51.786;6.018;2023-04-29T00:46:37;9.20;99.90
23803;DHT22;12082;51.786;6.018;2023-04-29T00:49:03;9.20;99.90
23803;DHT22;12082;51.786;6.018;2023-04-29T00:51:29;9.20;99.90
23803;DHT22;12082;51.786;6.018;2023-04-29T00:53:54;9.20;99.90
23803;DHT22;12082;51.786;6.018;2023-04-29T00:56:20;9.20;99.90
23803;DHT22;12082;51.786;6.018;2023-04-29T00:58:46;9.20;99.90
23803;DHT22;12082;51.786;6.018;2023-04-29T01:01:18;9.10;99.90
23803;DHT22;12082;51.786;6.018;2023-04-29T01:03:45;9.20;99.90
23803;DHT22;12082;51.786;6.018;2023-04-29T01:09:29;9.10;99.90
23803;DHT22;12082;51.786;6.018;2023-04-29T01:14:28;9.10;99.90
23803;DHT22;12082;51.786;6.018;2023-04-29T01:17:01;9.10;99.90
23803;DHT22;12082;51.786;6.018;2023-04-29T01:21:56;9.10;99.90
23803;DHT22;12082;51.786;6.018;2023-04-29T01:24:22;9.10;99.90
23803;DHT22;12082;51.786;6.018;2023-04-29T01:26:55;9.10;99.90
23803;DHT22;12082;51.786;6.018;2023-04-29T01:29:41;9.10;99.90
23803;DHT22;12082;51.786;6.018;2023-04-29T01:32:16;9.10;99.90
23803;DHT22;12082;51.786;6.018;2023-04-29T01:35:03;9.10;99.90
23803;DHT22;12082;51.786;6.018;2023-04-29T01:37:38;9.10;99.90
23803;DHT22;12082;51.786;6.018;2023-04-29T01:45:06;9.10;99.90
23803;DHT22;12082;51.786;6.018;2023-04-29T01:47:32;9.10;99.90
23803;DHT22;12082;51.786;6.018;2023-04-29T01:49:59;9.10;99.90
23803;DHT22;12082;51.786;6.018;2023-04-29T01:52:24;9.10;99.90
23803;DHT22;12082;51.786;6.018;2023-04-29T01:54:50;9.10;99.90
23803;DHT22;12082;51.786;6.018;2023-04-29T01:57:16;9.10;99.90
23803;DHT22;12082;51.786;6.018;2023-04-29T01:59:41;9.10;99.90
23803;DHT22;12082;51.786;6.018;2023-04-29T02:02:07;9.10;99.90
23803;DHT22;12082;51.786;6.018;2023-04-29T02:04:34;9.10;99.90
23803;DHT22;12082;51.786;6.018;2023-04-29T02:07:00;9.00;99.90
23803;DHT22;12082;51.786;6.018;2023-04-29T02:09:26;9.00;99.90
23803;DHT22;12082;51.786;6.018;2023-04-29T02:11:52;9.00;99.90
23803;DHT22;12082;51.786;6.018;2023-04-29T02:14:17;9.00;99.90
23803;DHT22;12082;51.786;6.018;2023-04-29T02:16:43;9.00;99.90
23803;DHT22;12082;51.786;6.018;2023-04-29T02:19:10;9.00;99.90
23803;DHT22;12082;51.786;6.018;2023-04-29T02:21:35;9.00;99.90
23803;DHT22;12082;51.786;6.018;2023-04-29T02:24:01;9.00;99.90
23803;DHT22;12082;51.786;6.018;2023-04-29T02:26:27;9.00;99.90
23803;DHT22;12082;51.786;6.018;2023-04-29T02:28:52;9.00;99.90
23803;DHT22;12082;51.786;6.018;2023-04-29T02:31:18;9.00;99.90
23803;DHT22;12082;51.786;6.018;2023-04-29T02:33:44;9.00;99.90
23803;DHT22;12082;51.786;6.018;2023-04-29T02:36:09;9.00;99.90
23803;DHT22;12082;51.786;6.018;2023-04-29T02:38:35;9.00;99.90
23803;DHT22;12082;51.786;6.018;2023-04-29T02:41:00;9.00;99.90
23803;DHT22;12082;51.786;6.018;2023-04-29T02:43:26;9.00;99.90
23803;DHT22;12082;51.786;6.018;2023-04-29T02:45:55;9.00;99.90
23803;DHT22;12082;51.786;6.018;2023-04-29T02:48:20;9.00;99.90
23803;DHT22;12082;51.786;6.018;2023-04-29T02:50:46;10.20;99.90
23803;DHT22;12082;51.786;6.018;2023-04-29T02:53:11;9.00;99.90
23803;DHT22;12082;51.786;6.018;2023-04-29T02:55:37;9.00;99.90
23803;DHT22;12082;51.786;6.018;2023-04-29T02:58:03;9.00;99.90
23803;DHT22;12082;51.786;6.018;2023-04-29T03:00:28;9.00;99.90
23803;DHT22;12082;51.786;6.018;2023-04-29T03:02:54;9.00;99.90
23803;DHT22;12082;51.786;6.018;2023-04-29T03:05:19;9.00;99.90
23803;DHT22;12082;51.786;6.018;2023-04-29T03:07:45;9.00;99.90
23803;DHT22;12082;51.786;6.018;2023-04-29T03:10:10;9.00;99.90
23803;DHT22;12082;51.786;6.018;2023-04-29T03:12:36;9.00;99.90
23803;DHT22;12082;51.786;6.018;2023-04-29T03:15:05;9.00;99.90
23803;DHT22;12082;51.786;6.018;2023-04-29T03:17:30;9.00;99.90
23803;DHT22;12082;51.786;6.018;2023-04-29T03:19:57;9.00;99.90
23803;DHT22;12082;51.786;6.018;2023-04-29T03:22:22;9.00;99.90
23803;DHT22;12082;51.786;6.018;2023-04-29T03:24:48;9.00;99.90
23803;DHT22;12082;51.786;6.018;2023-04-29T03:27:13;9.00;99.90
23803;DHT22;12082;51.786;6.018;2023-04-29T03:29:43;9.00;99.90
23803;DHT22;12082;51.786;6.018;2023-04-29T03:32:09;9.00;99.90
23803;DHT22;12082;51.786;6.018;2023-04-29T03:34:34;9.00;99.90
23803;DHT22;12082;51.786;6.018;2023-04-29T03:37:00;9.00;99.90
23803;DHT22;12082;51.786;6.018;2023-04-29T03:39:25;8.90;99.90
23803;DHT22;12082;51.786;6.018;2023-04-29T03:41:56;9.00;99.90
23803;DHT22;12082;51.786;6.018;2023-04-29T03:44:21;9.00;99.90
23803;DHT22;12082;51.786;6.018;2023-04-29T03:46:47;9.00;99.90
23803;DHT22;12082;51.786;6.018;2023-04-29T03:49:12;9.00;99.90
23803;DHT22;12082;51.786;6.018;2023-04-29T03:51:38;8.90;99.90
23803;DHT22;12082;51.786;6.018;2023-04-29T03:54:04;8.90;99.90
23803;DHT22;12082;51.786;6.018;2023-04-29T03:56:29;9.00;99.90
23803;DHT22;12082;51.786;6.018;2023-04-29T03:58:55;8.90;99.90
23803;DHT22;12082;51.786;6.018;2023-04-29T04:01:20;9.00;99.90
23803;DHT22;12082;51.786;6.018;2023-04-29T04:03:46;8.90;99.90
23803;DHT22;12082;51.786;6.018;2023-04-29T04:06:12;9.00;99.90
23803;DHT22;12082;51.786;6.018;2023-04-29T04:08:38;8.90;99.90
23803;DHT22;12082;51.786;6.018;2023-04-29T04:11:05;8.90;99.90
23803;DHT22;12082;51.786;6.018;2023-04-29T04:13:31;8.90;99.90
23803;DHT22;12082;51.786;6.018;2023-04-29T04:15:57;8.90;99.90
23803;DHT22;12082;51.786;6.018;2023-04-29T04:18:23;8.90;99.90
23803;DHT22;12082;51.786;6.018;2023-04-29T04:20:48;8.90;99.90
23803;DHT22;12082;51.786;6.018;2023-04-29T04:23:14;8.90;99.90
23803;DHT22;12082;51.786;6.018;2023-04-29T04:25:47;8.90;99.90
23803;DHT22;12082;51.786;6.018;2023-04-29T04:28:13;8.90;99.90
23803;DHT22;12082;51.786;6.018;2023-04-29T04:30:39;8.90;99.90
23803;DHT22;12082;51.786;6.018;2023-04-29T04:33:04;8.90;99.90
23803;DHT22;12082;51.786;6.018;2023-04-29T04:35:30;8.90;99.90
23803;DHT22;12082;51.786;6.018;2023-04-29T04:37:56;8.90;99.90
23803;DHT22;12082;51.786;6.018;2023-04-29T04:40:21;9.00;99.90
23803;DHT22;12082;51.786;6.018;2023-04-29T04:42:47;8.90;99.90
23803;DHT22;12082;51.786;6.018;2023-04-29T04:45:13;8.90;99.90
23803;DHT22;12082;51.786;6.018;2023-04-29T04:47:39;8.90;99.90
23803;DHT22;12082;51.786;6.018;2023-04-29T04:50:06;8.90;99.90
23803;DHT22;12082;51.786;6.018;2023-04-29T04:52:32;9.00;99.90
23803;DHT22;12082;51.786;6.018;2023-04-29T04:54:58;9.00;99.90
23803;DHT22;12082;51.786;6.018;2023-04-29T04:57:23;9.00;99.90
23803;DHT22;12082;51.786;6.018;2023-04-29T04:59:49;8.90;99.90
23803;DHT22;12082;51.786;6.018;2023-04-29T05:02:14;9.00;99.90
23803;DHT22;12082;51.786;6.018;2023-04-29T05:04:40;9.00;99.90
23803;DHT22;12082;51.786;6.018;2023-04-29T05:07:06;8.90;99.90
23803;DHT22;12082;51.786;6.018;2023-04-29T05:09:31;8.90;99.90
23803;DHT22;12082;51.786;6.018;2023-04-29T05:11:57;9.00;99.90
23803;DHT22;12082;51.786;6.018;2023-04-29T05:14:24;8.90;99.90
23803;DHT22;12082;51.786;6.018;2023-04-29T05:16:50;8.90;99.90
23803;DHT22;12082;51.786;6.018;2023-04-29T05:19:17;9.00;99.90
23803;DHT22;12082;51.786;6.018;2023-04-29T05:21:43;9.00;99.90
23803;DHT22;12082;51.786;6.018;2023-04-29T05:24:08;9.00;99.90
23803;DHT22;12082;51.786;6.018;2023-04-29T05:26:34;8.40;99.90
23803;DHT22;12082;51.786;6.018;2023-04-29T05:29:00;9.00;99.90
23803;DHT22;12082;51.786;6.018;2023-04-29T05:31:26;9.00;99.90
23803;DHT22;12082;51.786;6.018;2023-04-29T05:33:52;8.90;99.90
23803;DHT22;12082;51.786;6.018;2023-04-29T05:36:18;9.00;99.90
23803;DHT22;12082;51.786;6.018;2023-04-29T05:38:43;9.00;99.90
23803;DHT22;12082;51.786;6.018;2023-04-29T05:41:09;9.00;99.90
23803;DHT22;12082;51.786;6.018;2023-04-29T05:43:35;9.00;99.90
23803;DHT22;12082;51.786;6.018;2023-04-29T05:46:01;9.00;99.90
23803;DHT22;12082;51.786;6.018;2023-04-29T05:48:26;9.00;99.90
23803;DHT22;12082;51.786;6.018;2023-04-29T05:50:53;9.00;99.90
23803;DHT22;12082;51.786;6.018;2023-04-29T05:53:19;9.00;99.90
23803;DHT22;12082;51.786;6.018;2023-04-29T05:55:45;9.00;99.90
23803;DHT22;12082;51.786;6.018;2023-04-29T05:58:11;9.10;99.90
23803;DHT22;12082;51.786;6.018;2023-04-29T06:00:37;9.10;99.90
23803;DHT22;12082;51.786;6.018;2023-04-29T06:03:03;9.10;99.90
23803;DHT22;12082;51.786;6.018;2023-04-29T06:05:29;9.20;99.90
23803;DHT22;12082;51.786;6.018;2023-04-29T06:07:54;9.20;99.90
23803;DHT22;12082;51.786;6.018;2023-04-29T06:10:20;9.30;99.90
23803;DHT22;12082;51.786;6.018;2023-04-29T06:12:46;9.30;99.90
23803;DHT22;12082;51.786;6.018;2023-04-29T06:15:15;9.40;99.90
23803;DHT22;12082;51.786;6.018;2023-04-29T06:17:40;9.50;99.90
23803;DHT22;12082;51.786;6.018;2023-04-29T06:20:06;9.50;99.90
23803;DHT22;12082;51.786;6.018;2023-04-29T06:22:32;9.60;99.90
23803;DHT22;12082;51.786;6.018;2023-04-29T06:24:58;9.70;99.90
23803;DHT22;12082;51.786;6.018;2023-04-29T06:27:23;9.70;99.90
23803;DHT22;12082;51.786;6.018;2023-04-29T06:29:49;9.80;99.90
23803;DHT22;12082;51.786;6.018;2023-04-29T06:32:15;9.90;99.90
23803;DHT22;12082;51.786;6.018;2023-04-29T06:34:40;10.00;99.90
23803;DHT22;12082;51.786;6.018;2023-04-29T06:37:06;10.00;99.90
23803;DHT22;12082;51.786;6.018;2023-04-29T06:39:31;10.10;99.90
23803;DHT22;12082;51.786;6.018;2023-04-29T06:41:57;10.10;99.90
23803;DHT22;12082;51.786;6.018;2023-04-29T06:44:23;10.10;99.90
23803;DHT22;12082;51.786;6.018;2023-04-29T06:46:48;10.20;99.90
23803;DHT22;12082;51.786;6.018;2023-04-29T06:49:14;10.10;99.90
23803;DHT22;12082;51.786;6.018;2023-04-29T06:51:40;10.10;99.90
23803;DHT22;12082;51.786;6.018;2023-04-29T06:54:07;10.10;99.90
23803;DHT22;12082;51.786;6.018;2023-04-29T06:56:32;10.10;99.90
23803;DHT22;12082;51.786;6.018;2023-04-29T06:58:58;10.00;99.90
23803;DHT22;12082;51.786;6.018;2023-04-29T07:01:23;10.00;99.90
23803;DHT22;12082;51.786;6.018;2023-04-29T07:03:49;10.10;99.90
23803;DHT22;12082;51.786;6.018;2023-04-29T07:06:15;10.10;99.90
23803;DHT22;12082;51.786;6.018;2023-04-29T07:08:40;10.10;99.90
23803;DHT22;12082;51.786;6.018;2023-04-29T07:11:06;10.10;99.90
23803;DHT22;12082;51.786;6.018;2023-04-29T07:13:31;10.00;99.90
23803;DHT22;12082;51.786;6.018;2023-04-29T07:15:57;10.00;99.90
23803;DHT22;12082;51.786;6.018;2023-04-29T07:18:22;10.10;99.90
23803;DHT22;12082;51.786;6.018;2023-04-29T07:20:48;10.10;99.90
23803;DHT22;12082;51.786;6.018;2023-04-29T07:23:15;10.20;99.90
23803;DHT22;12082;51.786;6.018;2023-04-29T07:25:41;10.30;99.90
23803;DHT22;12082;51.786;6.018;2023-04-29T07:28:06;10.30;99.90
23803;DHT22;12082;51.786;6.018;2023-04-29T07:30:33;10.40;99.90
23803;DHT22;12082;51.786;6.018;2023-04-29T07:32:59;10.40;99.90
23803;DHT22;12082;51.786;6.018;2023-04-29T07:35:25;10.40;99.90
23803;DHT22;12082;51.786;6.018;2023-04-29T07:37:50;10.50;99.90
23803;DHT22;12082;51.786;6.018;2023-04-29T07:40:16;10.60;99.90
23803;DHT22;12082;51.786;6.018;2023-04-29T07:42:42;10.60;99.90
23803;DHT22;12082;51.786;6.018;2023-04-29T07:45:08;10.60;99.90
23803;DHT22;12082;51.786;6.018;2023-04-29T07:47:34;10.60;99.90
23803;DHT22;12082;51.786;6.018;2023-04-29T07:49:59;10.70;99.90
23803;DHT22;12082;51.786;6.018;2023-04-29T07:52:25;10.80;99.90
23803;DHT22;12082;51.786;6.018;2023-04-29T07:54:51;10.90;99.90
23803;DHT22;12082;51.786;6.018;2023-04-29T07:57:16;11.10;99.90
23803;DHT22;12082;51.786;6.018;2023-04-29T07:59:42;11.20;99.90
23803;DHT22;12082;51.786;6.018;2023-04-29T08:02:07;11.20;99.90
23803;DHT22;12082;51.786;6.018;2023-04-29T08:04:33;11.20;99.90
23803;DHT22;12082;51.786;6.018;2023-04-29T08:06:58;11.20;99.90
23803;DHT22;12082;51.786;6.018;2023-04-29T08:09:24;11.20;99.90
23803;DHT22;12082;51.786;6.018;2023-04-29T08:11:49;11.20;99.90
23803;DHT22;12082;51.786;6.018;2023-04-29T08:14:15;11.20;99.90
23803;DHT22;12082;51.786;6.018;2023-04-29T08:16:41;11.30;99.90
23803;DHT22;12082;51.786;6.018;2023-04-29T08:19:06;11.30;99.90
23803;DHT22;12082;51.786;6.018;2023-04-29T08:21:32;11.50;99.90
23803;DHT22;12082;51.786;6.018;2023-04-29T08:23:58;11.50;99.90
23803;DHT22;12082;51.786;6.018;2023-04-29T08:26:24;11.60;99.90
23803;DHT22;12082;51.786;6.018;2023-04-29T08:28:50;11.70;99.90
23803;DHT22;12082;51.786;6.018;2023-04-29T08:31:19;11.80;99.90
23803;DHT22;12082;51.786;6.018;2023-04-29T08:33:45;11.90;99.90
23803;DHT22;12082;51.786;6.018;2023-04-29T08:36:10;12.10;99.90
23803;DHT22;12082;51.786;6.018;2023-04-29T08:38:36;12.40;99.90
23803;DHT22;12082;51.786;6.018;2023-04-29T08:41:02;12.70;99.90
23803;DHT22;12082;51.786;6.018;2023-04-29T08:43:27;13.00;99.90
23803;DHT22;12082;51.786;6.018;2023-04-29T08:45:54;13.20;99.90
23803;DHT22;12082;51.786;6.018;2023-04-29T08:48:22;13.80;99.90
23803;DHT22;12082;51.786;6.018;2023-04-29T08:50:47;13.90;99.90
23803;DHT22;12082;51.786;6.018;2023-04-29T08:53:13;13.90;99.90
23803;DHT22;12082;51.786;6.018;2023-04-29T08:55:43;13.80;99.90
23803;DHT22;12082;51.786;6.018;2023-04-29T08:58:10;13.60;99.90
23803;DHT22;12082;51.786;6.018;2023-04-29T09:00:36;13.30;99.90
23803;DHT22;12082;51.786;6.018;2023-04-29T09:03:14;13.20;99.90
23803;DHT22;12082;51.786;6.018;2023-04-29T09:05:42;13.10;99.90
23803;DHT22;12082;51.786;6.018;2023-04-29T09:08:09;13.30;99.90
23803;DHT22;12082;51.786;6.018;2023-04-29T09:10:38;13.40;99.90
23803;DHT22;12082;51.786;6.018;2023-04-29T09:13:03;13.30;99.90
23803;DHT22;12082;51.786;6.018;2023-04-29T09:15:35;13.20;99.90
23803;DHT22;12082;51.786;6.018;2023-04-29T09:18:00;13.10;99.90
23803;DHT22;12082;51.786;6.018;2023-04-29T09:20:26;13.10;99.90
23803;DHT22;12082;51.786;6.018;2023-04-29T09:23:00;12.90;99.90
23803;DHT22;12082;51.786;6.018;2023-04-29T09:25:26;13.00;99.90
23803;DHT22;12082;51.786;6.018;2023-04-29T09:27:54;13.10;99.90
23803;DHT22;12082;51.786;6.018;2023-04-29T09:30:21;13.20;99.90
23803;DHT22;12082;51.786;6.018;2023-04-29T09:33:07;13.50;99.90
23803;DHT22;12082;51.786;6.018;2023-04-29T09:35:33;13.60;99.90
23803;DHT22;12082;51.786;6.018;2023-04-29T09:38:12;13.90;99.90
23803;DHT22;12082;51.786;6.018;2023-04-29T09:40:39;14.10;99.90
23803;DHT22;12082;51.786;6.018;2023-04-29T09:43:12;14.30;99.90
23803;DHT22;12082;51.786;6.018;2023-04-29T09:45:48;14.40;99.90
23803;DHT22;12082;51.786;6.018;2023-04-29T09:48:15;14.30;99.90
23803;DHT22;12082;51.786;6.018;2023-04-29T09:50:41;14.40;99.90
23803;DHT22;12082;51.786;6.018;2023-04-29T09:53:09;14.80;99.90
23803;DHT22;12082;51.786;6.018;2023-04-29T09:58:30;15.20;99.90
23803;DHT22;12082;51.786;6.018;2023-04-29T10:00:58;16.50;99.90
23803;DHT22;12082;51.786;6.018;2023-04-29T10:03:33;15.20;99.90
23803;DHT22;12082;51.786;6.018;2023-04-29T10:06:01;15.50;99.90
23803;DHT22;12082;51.786;6.018;2023-04-29T10:08:28;15.70;99.90
23803;DHT22;12082;51.786;6.018;2023-04-29T10:11:00;15.60;99.90
23803;DHT22;12082;51.786;6.018;2023-04-29T10:13:26;15.50;99.90
23803;DHT22;12082;51.786;6.018;2023-04-29T10:16:22;15.20;99.90
23803;DHT22;12082;51.786;6.018;2023-04-29T10:18:54;14.90;99.90
23803;DHT22;12082;51.786;6.018;2023-04-29T10:21:26;14.80;99.90
23803;DHT22;12082;51.786;6.018;2023-04-29T10:23:53;15.10;99.90
23803;DHT22;12082;51.786;6.018;2023-04-29T10:26:19;14.80;99.90
23803;DHT22;12082;51.786;6.018;2023-04-29T10:28:46;15.10;99.90
23803;DHT22;12082;51.786;6.018;2023-04-29T10:31:16;15.00;99.90
23803;DHT22;12082;51.786;6.018;2023-04-29T10:33:43;14.80;99.90
23803;DHT22;12082;51.786;6.018;2023-04-29T10:36:10;14.50;99.90
23803;DHT22;12082;51.786;6.018;2023-04-29T10:38:41;14.20;99.90
23803;DHT22;12082;51.786;6.018;2023-04-29T10:41:24;14.10;99.90
23803;DHT22;12082;51.786;6.018;2023-04-29T10:43:51;14.20;99.90
23803;DHT22;12082;51.786;6.018;2023-04-29T10:46:25;14.50;99.90
23803;DHT22;12082;51.786;6.018;2023-04-29T10:49:00;14.90;99.90
23803;DHT22;12082;51.786;6.018;2023-04-29T10:51:28;15.50;99.90
23803;DHT22;12082;51.786;6.018;2023-04-29T10:59:15;15.90;99.90
23803;DHT22;12082;51.786;6.018;2023-04-29T11:01:45;15.70;99.90
23803;DHT22;12082;51.786;6.018;2023-04-29T11:04:11;15.60;99.90
23803;DHT22;12082;51.786;6.018;2023-04-29T11:09:12;15.80;99.90
23803;DHT22;12082;51.786;6.018;2023-04-29T11:12:04;15.70;99.90
23803;DHT22;12082;51.786;6.018;2023-04-29T11:14:41;15.50;99.90
23803;DHT22;12082;51.786;6.018;2023-04-29T11:17:09;15.30;99.90
23803;DHT22;12082;51.786;6.018;2023-04-29T11:19:46;15.20;99.90
23803;DHT22;12082;51.786;6.018;2023-04-29T11:24:54;15.10;99.90
23803;DHT22;12082;51.786;6.018;2023-04-29T11:27:22;15.10;99.90
23803;DHT22;12082;51.786;6.018;2023-04-29T11:29:51;15.10;99.90
23803;DHT22;12082;51.786;6.018;2023-04-29T11:32:19;15.50;99.90
23803;DHT22;12082;51.786;6.018;2023-04-29T11:34:46;15.50;99.90
23803;DHT22;12082;51.786;6.018;2023-04-29T11:37:12;15.60;99.90
23803;DHT22;12082;51.786;6.018;2023-04-29T11:39:37;16.10;99.90
23803;DHT22;12082;51.786;6.018;2023-04-29T11:42:06;16.20;99.90
23803;DHT22;12082;51.786;6.018;2023-04-29T11:44:33;16.30;99.90
23803;DHT22;12082;51.786;6.018;2023-04-29T11:47:04;16.00;99.90
23803;DHT22;12082;51.786;6.018;2023-04-29T11:49:33;15.60;99.90
23803;DHT22;12082;51.786;6.018;2023-04-29T11:51:59;15.20;99.90
23803;DHT22;12082;51.786;6.018;2023-04-29T11:54:29;15.10;99.90
23803;DHT22;12082;51.786;6.018;2023-04-29T11:56:56;14.70;99.90
23803;DHT22;12082;51.786;6.018;2023-04-29T11:59:22;14.60;99.90
23803;DHT22;12082;51.786;6.018;2023-04-29T12:01:49;14.70;99.90
23803;DHT22;12082;51.786;6.018;2023-04-29T12:04:15;14.60;99.90
23803;DHT22;12082;51.786;6.018;2023-04-29T12:06:41;14.80;99.90
23803;DHT22;12082;51.786;6.018;2023-04-29T12:09:06;14.90;99.90
23803;DHT22;12082;51.786;6.018;2023-04-29T12:11:33;15.10;99.90
23803;DHT22;12082;51.786;6.018;2023-04-29T12:13:59;15.30;99.90
23803;DHT22;12082;51.786;6.018;2023-04-29T12:16:27;15.60;99.90
23803;DHT22;12082;51.786;6.018;2023-04-29T12:18:54;15.90;99.90
23803;DHT22;12082;51.786;6.018;2023-04-29T12:21:21;15.90;99.90
23803;DHT22;12082;51.786;6.018;2023-04-29T12:23:47;15.90;99.90
23803;DHT22;12082;51.786;6.018;2023-04-29T12:26:13;15.70;99.90
23803;DHT22;12082;51.786;6.018;2023-04-29T12:28:40;15.80;99.90
23803;DHT22;12082;51.786;6.018;2023-04-29T12:31:08;15.90;99.90
23803;DHT22;12082;51.786;6.018;2023-04-29T12:33:35;15.90;99.90
23803;DHT22;12082;51.786;6.018;2023-04-29T12:36:01;15.90;99.90
23803;DHT22;12082;51.786;6.018;2023-04-29T12:38:30;15.80;99.90
23803;DHT22;12082;51.786;6.018;2023-04-29T12:41:00;15.70;99.90
23803;DHT22;12082;51.786;6.018;2023-04-29T12:43:30;15.70;99.90
23803;DHT22;12082;51.786;6.018;2023-04-29T12:46:06;15.70;99.90
23803;DHT22;12082;51.786;6.018;2023-04-29T12:48:34;15.60;99.90
23803;DHT22;12082;51.786;6.018;2023-04-29T12:51:01;15.50;99.90
23803;DHT22;12082;51.786;6.018;2023-04-29T12:53:29;15.50;99.90
23803;DHT22;12082;51.786;6.018;2023-04-29T12:55:55;15.60;99.90
23803;DHT22;12082;51.786;6.018;2023-04-29T12:58:21;15.70;99.90
23803;DHT22;12082;51.786;6.018;2023-04-29T13:00:47;15.80;99.90
23803;DHT22;12082;51.786;6.018;2023-04-29T13:03:12;15.80;99.90
23803;DHT22;12082;51.786;6.018;2023-04-29T13:05:38;15.90;99.90
23803;DHT22;12082;51.786;6.018;2023-04-29T13:08:05;16.10;99.90
23803;DHT22;12082;51.786;6.018;2023-04-29T13:10:31;16.20;99.90
23803;DHT22;12082;51.786;6.018;2023-04-29T13:12:57;16.30;99.90
23803;DHT22;12082;51.786;6.018;2023-04-29T13:15:23;16.20;99.90
23803;DHT22;12082;51.786;6.018;2023-04-29T13:17:48;16.30;99.90
23803;DHT22;12082;51.786;6.018;2023-04-29T13:20:14;16.30;99.90
23803;DHT22;12082;51.786;6.018;2023-04-29T13:22:40;16.30;99.90
23803;DHT22;12082;51.786;6.018;2023-04-29T13:25:08;16.40;99.90
23803;DHT22;12082;51.786;6.018;2023-04-29T13:27:34;16.30;99.90
23803;DHT22;12082;51.786;6.018;2023-04-29T13:30:00;16.20;99.90
23803;DHT22;12082;51.786;6.018;2023-04-29T13:32:26;16.80;99.90
23803;DHT22;12082;51.786;6.018;2023-04-29T13:34:52;16.30;99.90
23803;DHT22;12082;51.786;6.018;2023-04-29T13:37:18;16.40;99.90
23803;DHT22;12082;51.786;6.018;2023-04-29T13:39:44;16.40;99.90
23803;DHT22;12082;51.786;6.018;2023-04-29T13:42:10;16.40;99.90
23803;DHT22;12082;51.786;6.018;2023-04-29T13:44:35;16.40;99.90
23803;DHT22;12082;51.786;6.018;2023-04-29T13:47:01;16.40;99.90
23803;DHT22;12082;51.786;6.018;2023-04-29T13:49:28;16.50;99.90
23803;DHT22;12082;51.786;6.018;2023-04-29T13:51:54;16.80;99.90
23803;DHT22;12082;51.786;6.018;2023-04-29T13:54:19;17.10;99.90
23803;DHT22;12082;51.786;6.018;2023-04-29T13:56:46;17.20;99.90
23803;DHT22;12082;51.786;6.018;2023-04-29T13:59:12;17.00;99.90
23803;DHT22;12082;51.786;6.018;2023-04-29T14:01:38;17.00;99.90
23803;DHT22;12082;51.786;6.018;2023-04-29T14:04:03;17.20;99.90
23803;DHT22;12082;51.786;6.018;2023-04-29T14:06:29;17.30;99.90
23803;DHT22;12082;51.786;6.018;2023-04-29T14:08:57;17.40;99.90
23803;DHT22;12082;51.786;6.018;2023-04-29T14:11:22;17.70;99.90
23803;DHT22;12082;51.786;6.018;2023-04-29T14:13:48;17.60;99.90
23803;DHT22;12082;51.786;6.018;2023-04-29T14:16:14;17.70;99.90
23803;DHT22;12082;51.786;6.018;2023-04-29T14:18:40;17.80;99.90
23803;DHT22;12082;51.786;6.018;2023-04-29T14:21:05;17.90;99.90
23803;DHT22;12082;51.786;6.018;2023-04-29T14:23:31;17.70;99.90
23803;DHT22;12082;51.786;6.018;2023-04-29T14:25:56;17.40;99.90
23803;DHT22;12082;51.786;6.018;2023-04-29T14:28:22;17.20;99.90
23803;DHT22;12082;51.786;6.018;2023-04-29T14:30:47;16.80;99.90
23803;DHT22;12082;51.786;6.018;2023-04-29T14:33:13;16.60;99.90
23803;DHT22;12082;51.786;6.018;2023-04-29T14:35:38;16.40;99.90
23803;DHT22;12082;51.786;6.018;2023-04-29T14:38:04;16.20;99.90
23803;DHT22;12082;51.786;6.018;2023-04-29T14:40:29;16.00;99.90
23803;DHT22;12082;51.786;6.018;2023-04-29T14:42:55;15.90;99.90
23803;DHT22;12082;51.786;6.018;2023-04-29T14:45:21;15.80;99.90
23803;DHT22;12082;51.786;6.018;2023-04-29T14:47:46;15.90;99.90
23803;DHT22;12082;51.786;6.018;2023-04-29T14:50:12;15.80;99.90
23803;DHT22;12082;51.786;6.018;2023-04-29T14:52:37;15.90;99.90
23803;DHT22;12082;51.786;6.018;2023-04-29T14:55:03;15.90;99.90
23803;DHT22;12082;51.786;6.018;2023-04-29T14:57:29;16.00;99.90
23803;DHT22;12082;51.786;6.018;2023-04-29T14:59:55;16.00;99.90
23803;DHT22;12082;51.786;6.018;2023-04-29T15:02:21;16.00;99.90
23803;DHT22;12082;51.786;6.018;2023-04-29T15:04:46;16.10;99.90
23803;DHT22;12082;51.786;6.018;2023-04-29T15:07:13;16.00;99.90
23803;DHT22;12082;51.786;6.018;2023-04-29T15:09:40;15.80;99.90
23803;DHT22;12082;51.786;6.018;2023-04-29T15:12:06;15.80;99.90
23803;DHT22;12082;51.786;6.018;2023-04-29T15:14:32;15.80;99.90
23803;DHT22;12082;51.786;6.018;2023-04-29T15:16:58;15.60;99.90
23803;DHT22;12082;51.786;6.018;2023-04-29T15:19:23;15.60;99.90
23803;DHT22;12082;51.786;6.018;2023-04-29T15:21:50;15.60;99.90
23803;DHT22;12082;51.786;6.018;2023-04-29T15:24:16;15.50;99.90
23803;DHT22;12082;51.786;6.018;2023-04-29T15:26:42;15.50;99.90
23803;DHT22;12082;51.786;6.018;2023-04-29T15:29:08;15.50;99.90
23803;DHT22;12082;51.786;6.018;2023-04-29T15:31:34;15.80;99.90
23803;DHT22;12082;51.786;6.018;2023-04-29T15:33:59;16.10;99.90
23803;DHT22;12082;51.786;6.018;2023-04-29T15:36:29;16.40;99.90
23803;DHT22;12082;51.786;6.018;2023-04-29T15:38:55;16.40;99.90
23803;DHT22;12082;51.786;6.018;2023-04-29T15:41:21;16.30;99.90
23803;DHT22;12082;51.786;6.018;2023-04-29T15:43:47;16.10;99.90
23803;DHT22;12082;51.786;6.018;2023-04-29T15:46:13;16.00;99.90
23803;DHT22;12082;51.786;6.018;2023-04-29T15:48:38;15.80;99.90
23803;DHT22;12082;51.786;6.018;2023-04-29T15:51:04;15.70;99.90
23803;DHT22;12082;51.786;6.018;2023-04-29T15:53:30;15.60;99.90
23803;DHT22;12082;51.786;6.018;2023-04-29T15:55:55;15.40;99.90
23803;DHT22;12082;51.786;6.018;2023-04-29T15:58:21;15.30;99.90
23803;DHT22;12082;51.786;6.018;2023-04-29T16:00:47;15.20;99.90